sensor_id;sensor_type;location;lat;lon;timestamp;temperature;humidity
19449;DHT22;9863;49.404;8.246;2023-02-15T00:00:05;1.70;99.90
19449;DHT22;9863;49.404;8.246;2023-02-15T00:02:37;1.60;99.90
19449;DHT22;9863;49.404;8.246;2023-02-15T00:05:05;1.60;99.90
19449;DHT22;9863;49.404;8.246;2023-02-15T00:07:32;1.60;99.90
19449;DHT22;9863;49.404;8.246;2023-02-15T00:09:59;1.60;99.90
19449;DHT22;9863;49.404;8.246;2023-02-15T00:12:26;1.60;99.90
19449;DHT22;9863;49.404;8.246;2023-02-15T00:14:53;1.60;99.90
19449;DHT22;9863;49.404;8.246;2023-02-15T00:17:20;1.80;99.90
19449;DHT22;9863;49.404;8.246;2023-02-15T00:19:48;1.80;99.90
19449;DHT22;9863;49.404;8.246;2023-02-15T00:22:15;2.10;99.90
19449;DHT22;9863;49.404;8.246;2023-02-15T00:24:42;1.70;99.90
19449;DHT22;9863;49.404;8.246;2023-02-15T00:27:09;1.60;99.90
19449;DHT22;9863;49.404;8.246;2023-02-15T00:29:36;2.00;99.90
19449;DHT22;9863;49.404;8.246;2023-02-15T00:32:03;1.50;99.90
19449;DHT22;9863;49.404;8.246;2023-02-15T00:34:30;1.60;99.90
19449;DHT22;9863;49.404;8.246;2023-02-15T00:36:57;1.50;99.90
19449;DHT22;9863;49.404;8.246;2023-02-15T00:39:24;1.60;99.90
19449;DHT22;9863;49.404;8.246;2023-02-15T00:41:53;1.60;99.90
19449;DHT22;9863;49.404;8.246;2023-02-15T00:44:20;1.90;99.90
19449;DHT22;9863;49.404;8.246;2023-02-15T00:46:47;1.60;99.90
19449;DHT22;9863;49.404;8.246;2023-02-15T00:49:14;1.60;99.90
19449;DHT22;9863;49.404;8.246;2023-02-15T00:51:41;1.60;99.90
19449;DHT22;9863;49.404;8.246;2023-02-15T00:54:09;1.50;99.90
19449;DHT22;9863;49.404;8.246;2023-02-15T00:56:36;2.00;99.90
19449;DHT22;9863;49.404;8.246;2023-02-15T00:59:03;1.50;99.90
19449;DHT22;9863;49.404;8.246;2023-02-15T01:01:30;1.40;99.90
19449;DHT22;9863;49.404;8.246;2023-02-15T01:03:57;1.40;99.90
19449;DHT22;9863;49.404;8.246;2023-02-15T01:06:25;1.50;99.90
19449;DHT22;9863;49.404;8.246;2023-02-15T01:08:52;1.50;99.90
19449;DHT22;9863;49.404;8.246;2023-02-15T01:11:21;1.60;99.90
19449;DHT22;9863;49.404;8.246;2023-02-15T01:13:50;1.40;99.90
19449;DHT22;9863;49.404;8.246;2023-02-15T01:16:19;1.60;99.90
19449;DHT22;9863;49.404;8.246;2023-02-15T01:18:46;1.60;99.90
19449;DHT22;9863;49.404;8.246;2023-02-15T01:21:16;1.60;99.90
19449;DHT22;9863;49.404;8.246;2023-02-15T01:23:45;1.50;99.90
19449;DHT22;9863;49.404;8.246;2023-02-15T01:26:13;1.60;99.90
19449;DHT22;9863;49.404;8.246;2023-02-15T01:28:40;1.50;99.90
19449;DHT22;9863;49.404;8.246;2023-02-15T01:31:09;2.10;99.90
19449;DHT22;9863;49.404;8.246;2023-02-15T01:33:38;1.50;99.90
19449;DHT22;9863;49.404;8.246;2023-02-15T01:36:06;1.60;99.90
19449;DHT22;9863;49.404;8.246;2023-02-15T01:38:34;1.50;99.90
19449;DHT22;9863;49.404;8.246;2023-02-15T01:41:02;1.80;99.90
19449;DHT22;9863;49.404;8.246;2023-02-15T01:43:58;1.50;99.90
19449;DHT22;9863;49.404;8.246;2023-02-15T01:46:50;1.60;99.90
19449;DHT22;9863;49.404;8.246;2023-02-15T01:49:20;1.60;99.90
19449;DHT22;9863;49.404;8.246;2023-02-15T01:51:50;1.50;99.90
19449;DHT22;9863;49.404;8.246;2023-02-15T01:54:25;1.90;99.90
19449;DHT22;9863;49.404;8.246;2023-02-15T01:57:00;1.40;99.90
19449;DHT22;9863;49.404;8.246;2023-02-15T01:59:33;1.50;99.90
19449;DHT22;9863;49.404;8.246;2023-02-15T02:02:02;1.60;99.90
19449;DHT22;9863;49.404;8.246;2023-02-15T02:04:52;1.40;99.90
19449;DHT22;9863;49.404;8.246;2023-02-15T02:07:26;1.50;99.90
19449;DHT22;9863;49.404;8.246;2023-02-15T02:09:55;1.50;99.90
19449;DHT22;9863;49.404;8.246;2023-02-15T02:12:23;1.80;99.90
19449;DHT22;9863;49.404;8.246;2023-02-15T02:14:51;1.60;99.90
19449;DHT22;9863;49.404;8.246;2023-02-15T02:20:14;1.60;99.90
19449;DHT22;9863;49.404;8.246;2023-02-15T02:31:44;1.30;99.90
19449;DHT22;9863;49.404;8.246;2023-02-15T02:34:31;1.30;99.90
19449;DHT22;9863;49.404;8.246;2023-02-15T02:37:30;1.20;99.90
19449;DHT22;9863;49.404;8.246;2023-02-15T02:40:18;1.20;99.90
19449;DHT22;9863;49.404;8.246;2023-02-15T02:42:59;1.20;99.90
19449;DHT22;9863;49.404;8.246;2023-02-15T02:45:44;1.30;99.90
19449;DHT22;9863;49.404;8.246;2023-02-15T02:48:20;1.20;99.90
19449;DHT22;9863;49.404;8.246;2023-02-15T02:50:49;1.20;99.90
19449;DHT22;9863;49.404;8.246;2023-02-15T02:53:16;1.20;99.90
19449;DHT22;9863;49.404;8.246;2023-02-15T02:56:29;1.60;99.90
19449;DHT22;9863;49.404;8.246;2023-02-15T02:58:43;1.10;99.90
19449;DHT22;9863;49.404;8.246;2023-02-15T03:01:26;1.50;99.90
19449;DHT22;9863;49.404;8.246;2023-02-15T03:04:11;1.20;99.90
19449;DHT22;9863;49.404;8.246;2023-02-15T03:06:46;1.20;99.90
19449;DHT22;9863;49.404;8.246;2023-02-15T03:12:17;1.20;99.90
19449;DHT22;9863;49.404;8.246;2023-02-15T03:14:49;1.20;99.90
19449;DHT22;9863;49.404;8.246;2023-02-15T03:17:21;1.10;99.90
19449;DHT22;9863;49.404;8.246;2023-02-15T03:19:51;1.50;99.90
19449;DHT22;9863;49.404;8.246;2023-02-15T03:22:29;1.20;99.90
19449;DHT22;9863;49.404;8.246;2023-02-15T03:27:45;1.10;99.90
19449;DHT22;9863;49.404;8.246;2023-02-15T03:30:18;1.10;99.90
19449;DHT22;9863;49.404;8.246;2023-02-15T03:32:48;1.10;99.90
19449;DHT22;9863;49.404;8.246;2023-02-15T03:35:16;1.10;99.90
19449;DHT22;9863;49.404;8.246;2023-02-15T03:37:52;1.00;99.90
19449;DHT22;9863;49.404;8.246;2023-02-15T03:40:29;1.20;99.90
19449;DHT22;9863;49.404;8.246;2023-02-15T03:43:22;1.00;99.90
19449;DHT22;9863;49.404;8.246;2023-02-15T03:45:58;1.20;99.90
19449;DHT22;9863;49.404;8.246;2023-02-15T03:48:38;1.10;99.90
19449;DHT22;9863;49.404;8.246;2023-02-15T03:51:14;1.00;99.90
19449;DHT22;9863;49.404;8.246;2023-02-15T03:54:07;1.10;99.90
19449;DHT22;9863;49.404;8.246;2023-02-15T03:56:37;0.90;99.90
19449;DHT22;9863;49.404;8.246;2023-02-15T03:59:06;0.90;99.90
19449;DHT22;9863;49.404;8.246;2023-02-15T04:02:02;0.80;99.90
19449;DHT22;9863;49.404;8.246;2023-02-15T04:04:41;0.80;99.90
19449;DHT22;9863;49.404;8.246;2023-02-15T04:07:11;0.90;99.90
19449;DHT22;9863;49.404;8.246;2023-02-15T04:09:38;0.80;99.90
19449;DHT22;9863;49.404;8.246;2023-02-15T04:12:24;0.90;99.90
19449;DHT22;9863;49.404;8.246;2023-02-15T04:14:51;0.90;99.90
19449;DHT22;9863;49.404;8.246;2023-02-15T04:17:38;0.90;99.90
19449;DHT22;9863;49.404;8.246;2023-02-15T04:20:06;0.90;99.90
19449;DHT22;9863;49.404;8.246;2023-02-15T04:22:53;0.90;99.90
19449;DHT22;9863;49.404;8.246;2023-02-15T04:25:39;0.90;99.90
19449;DHT22;9863;49.404;8.246;2023-02-15T04:28:06;0.90;99.90
19449;DHT22;9863;49.404;8.246;2023-02-15T04:30:34;0.90;99.90
19449;DHT22;9863;49.404;8.246;2023-02-15T04:33:01;0.90;99.90
19449;DHT22;9863;49.404;8.246;2023-02-15T04:35:29;0.90;99.90
19449;DHT22;9863;49.404;8.246;2023-02-15T04:37:58;1.40;99.90
19449;DHT22;9863;49.404;8.246;2023-02-15T04:40:25;0.90;99.90
19449;DHT22;9863;49.404;8.246;2023-02-15T04:42:52;1.00;99.90
19449;DHT22;9863;49.404;8.246;2023-02-15T04:45:19;0.80;99.90
19449;DHT22;9863;49.404;8.246;2023-02-15T04:47:46;0.90;99.90
19449;DHT22;9863;49.404;8.246;2023-02-15T04:50:13;0.90;99.90
19449;DHT22;9863;49.404;8.246;2023-02-15T04:52:41;0.90;99.90
19449;DHT22;9863;49.404;8.246;2023-02-15T04:55:08;0.90;99.90
19449;DHT22;9863;49.404;8.246;2023-02-15T04:57:35;1.00;99.90
19449;DHT22;9863;49.404;8.246;2023-02-15T05:00:02;1.00;99.90
19449;DHT22;9863;49.404;8.246;2023-02-15T05:02:30;0.90;99.90
19449;DHT22;9863;49.404;8.246;2023-02-15T05:04:57;0.90;99.90
19449;DHT22;9863;49.404;8.246;2023-02-15T05:07:24;1.50;99.90
19449;DHT22;9863;49.404;8.246;2023-02-15T05:09:51;1.00;99.90
19449;DHT22;9863;49.404;8.246;2023-02-15T05:12:18;0.90;99.90
19449;DHT22;9863;49.404;8.246;2023-02-15T05:14:45;0.80;99.90
19449;DHT22;9863;49.404;8.246;2023-02-15T05:17:12;0.80;99.90
19449;DHT22;9863;49.404;8.246;2023-02-15T05:19:39;0.80;99.90
19449;DHT22;9863;49.404;8.246;2023-02-15T05:22:06;0.90;99.90
19449;DHT22;9863;49.404;8.246;2023-02-15T05:24:33;0.90;99.90
19449;DHT22;9863;49.404;8.246;2023-02-15T05:27:19;0.90;99.90
19449;DHT22;9863;49.404;8.246;2023-02-15T05:30:04;1.00;99.90
19449;DHT22;9863;49.404;8.246;2023-02-15T05:32:32;0.90;99.90
19449;DHT22;9863;49.404;8.246;2023-02-15T05:34:59;1.00;99.90
19449;DHT22;9863;49.404;8.246;2023-02-15T05:37:26;0.80;99.90
19449;DHT22;9863;49.404;8.246;2023-02-15T05:39:53;0.80;99.90
19449;DHT22;9863;49.404;8.246;2023-02-15T05:42:20;0.70;99.90
19449;DHT22;9863;49.404;8.246;2023-02-15T05:44:47;1.40;99.90
19449;DHT22;9863;49.404;8.246;2023-02-15T05:47:14;1.70;99.90
19449;DHT22;9863;49.404;8.246;2023-02-15T05:49:41;0.70;99.90
19449;DHT22;9863;49.404;8.246;2023-02-15T05:52:08;1.00;99.90
19449;DHT22;9863;49.404;8.246;2023-02-15T05:54:35;1.70;99.90
19449;DHT22;9863;49.404;8.246;2023-02-15T05:57:02;1.10;99.90
19449;DHT22;9863;49.404;8.246;2023-02-15T05:59:29;0.90;99.90
19449;DHT22;9863;49.404;8.246;2023-02-15T06:01:57;0.90;99.90
19449;DHT22;9863;49.404;8.246;2023-02-15T06:04:24;0.90;99.90
19449;DHT22;9863;49.404;8.246;2023-02-15T06:06:51;0.70;99.90
19449;DHT22;9863;49.404;8.246;2023-02-15T06:09:18;0.70;99.90
19449;DHT22;9863;49.404;8.246;2023-02-15T06:11:46;0.60;99.90
19449;DHT22;9863;49.404;8.246;2023-02-15T06:14:13;1.30;99.90
19449;DHT22;9863;49.404;8.246;2023-02-15T06:16:40;0.70;99.90
19449;DHT22;9863;49.404;8.246;2023-02-15T06:19:07;0.70;99.90
19449;DHT22;9863;49.404;8.246;2023-02-15T06:21:34;0.70;99.90
19449;DHT22;9863;49.404;8.246;2023-02-15T06:24:01;0.80;99.90
19449;DHT22;9863;49.404;8.246;2023-02-15T06:26:28;0.70;99.90
19449;DHT22;9863;49.404;8.246;2023-02-15T06:28:57;0.90;99.90
19449;DHT22;9863;49.404;8.246;2023-02-15T06:31:24;0.70;99.90
19449;DHT22;9863;49.404;8.246;2023-02-15T06:33:51;1.10;99.90
19449;DHT22;9863;49.404;8.246;2023-02-15T06:36:18;0.60;99.90
19449;DHT22;9863;49.404;8.246;2023-02-15T06:38:45;0.60;99.90
19449;DHT22;9863;49.404;8.246;2023-02-15T06:41:12;0.60;99.90
19449;DHT22;9863;49.404;8.246;2023-02-15T06:43:39;0.90;99.90
19449;DHT22;9863;49.404;8.246;2023-02-15T06:46:06;1.30;99.90
19449;DHT22;9863;49.404;8.246;2023-02-15T06:48:33;0.80;99.90
19449;DHT22;9863;49.404;8.246;2023-02-15T06:51:01;0.80;99.90
19449;DHT22;9863;49.404;8.246;2023-02-15T06:53:28;0.80;99.90
19449;DHT22;9863;49.404;8.246;2023-02-15T06:56:06;0.70;99.90
19449;DHT22;9863;49.404;8.246;2023-02-15T06:58:36;0.80;99.90
19449;DHT22;9863;49.404;8.246;2023-02-15T07:01:07;0.90;99.90
19449;DHT22;9863;49.404;8.246;2023-02-15T07:03:35;0.90;99.90
19449;DHT22;9863;49.404;8.246;2023-02-15T07:06:04;0.70;99.90
19449;DHT22;9863;49.404;8.246;2023-02-15T07:08:35;0.60;99.90
19449;DHT22;9863;49.404;8.246;2023-02-15T07:11:03;0.60;99.90
19449;DHT22;9863;49.404;8.246;2023-02-15T07:13:50;0.60;99.90
19449;DHT22;9863;49.404;8.246;2023-02-15T07:16:19;0.60;99.90
19449;DHT22;9863;49.404;8.246;2023-02-15T07:18:46;0.50;99.90
19449;DHT22;9863;49.404;8.246;2023-02-15T07:21:13;0.80;99.90
19449;DHT22;9863;49.404;8.246;2023-02-15T07:23:40;0.60;99.90
19449;DHT22;9863;49.404;8.246;2023-02-15T07:26:08;0.60;99.90
19449;DHT22;9863;49.404;8.246;2023-02-15T07:28:35;0.90;99.90
19449;DHT22;9863;49.404;8.246;2023-02-15T07:31:03;1.00;99.90
19449;DHT22;9863;49.404;8.246;2023-02-15T07:33:32;1.30;99.90
19449;DHT22;9863;49.404;8.246;2023-02-15T07:36:01;1.30;99.90
19449;DHT22;9863;49.404;8.246;2023-02-15T07:38:32;0.60;99.90
19449;DHT22;9863;49.404;8.246;2023-02-15T07:41:05;0.50;99.90
19449;DHT22;9863;49.404;8.246;2023-02-15T07:43:36;1.00;99.90
19449;DHT22;9863;49.404;8.246;2023-02-15T07:46:09;0.50;99.90
19449;DHT22;9863;49.404;8.246;2023-02-15T07:48:39;0.50;99.90
19449;DHT22;9863;49.404;8.246;2023-02-15T07:51:08;0.50;99.90
19449;DHT22;9863;49.404;8.246;2023-02-15T07:53:38;1.00;99.90
19449;DHT22;9863;49.404;8.246;2023-02-15T07:56:09;0.90;99.90
19449;DHT22;9863;49.404;8.246;2023-02-15T07:58:37;0.40;99.90
19449;DHT22;9863;49.404;8.246;2023-02-15T08:01:31;0.50;99.90
19449;DHT22;9863;49.404;8.246;2023-02-15T08:03:59;0.80;99.90
19449;DHT22;9863;49.404;8.246;2023-02-15T08:06:29;0.50;99.90
19449;DHT22;9863;49.404;8.246;2023-02-15T08:08:58;0.50;99.90
19449;DHT22;9863;49.404;8.246;2023-02-15T08:11:27;0.60;99.90
19449;DHT22;9863;49.404;8.246;2023-02-15T08:14:13;0.70;99.90
19449;DHT22;9863;49.404;8.246;2023-02-15T08:16:48;0.70;99.90
19449;DHT22;9863;49.404;8.246;2023-02-15T08:22:02;0.70;99.90
19449;DHT22;9863;49.404;8.246;2023-02-15T08:24:35;0.80;99.90
19449;DHT22;9863;49.404;8.246;2023-02-15T08:27:07;0.80;99.90
19449;DHT22;9863;49.404;8.246;2023-02-15T08:29:36;1.00;99.90
19449;DHT22;9863;49.404;8.246;2023-02-15T08:32:07;0.70;99.90
19449;DHT22;9863;49.404;8.246;2023-02-15T08:34:39;0.80;99.90
19449;DHT22;9863;49.404;8.246;2023-02-15T08:37:07;0.70;99.90
19449;DHT22;9863;49.404;8.246;2023-02-15T08:39:35;0.60;99.90
19449;DHT22;9863;49.404;8.246;2023-02-15T08:42:03;1.10;99.90
19449;DHT22;9863;49.404;8.246;2023-02-15T08:44:30;0.60;99.90
19449;DHT22;9863;49.404;8.246;2023-02-15T08:46:58;1.50;99.90
19449;DHT22;9863;49.404;8.246;2023-02-15T08:49:31;0.70;99.90
19449;DHT22;9863;49.404;8.246;2023-02-15T08:51:58;0.70;99.90
19449;DHT22;9863;49.404;8.246;2023-02-15T08:54:26;1.20;99.90
19449;DHT22;9863;49.404;8.246;2023-02-15T08:56:54;0.70;99.90
19449;DHT22;9863;49.404;8.246;2023-02-15T08:59:24;0.70;99.90
19449;DHT22;9863;49.404;8.246;2023-02-15T09:01:53;1.40;99.90
19449;DHT22;9863;49.404;8.246;2023-02-15T09:04:21;0.80;99.90
19449;DHT22;9863;49.404;8.246;2023-02-15T09:06:50;0.80;99.90
19449;DHT22;9863;49.404;8.246;2023-02-15T09:09:18;1.10;99.90
19449;DHT22;9863;49.404;8.246;2023-02-15T09:11:48;1.30;99.90
19449;DHT22;9863;49.404;8.246;2023-02-15T09:14:23;1.00;99.90
19449;DHT22;9863;49.404;8.246;2023-02-15T09:16:52;1.30;99.90
19449;DHT22;9863;49.404;8.246;2023-02-15T09:19:21;1.30;99.90
19449;DHT22;9863;49.404;8.246;2023-02-15T09:21:49;0.80;99.90
19449;DHT22;9863;49.404;8.246;2023-02-15T09:24:17;0.80;99.90
19449;DHT22;9863;49.404;8.246;2023-02-15T09:26:47;0.90;99.90
19449;DHT22;9863;49.404;8.246;2023-02-15T09:29:16;0.90;99.90
19449;DHT22;9863;49.404;8.246;2023-02-15T09:31:46;1.30;99.90
19449;DHT22;9863;49.404;8.246;2023-02-15T09:34:18;1.10;99.90
19449;DHT22;9863;49.404;8.246;2023-02-15T09:36:47;0.90;99.90
19449;DHT22;9863;49.404;8.246;2023-02-15T09:47:41;0.90;99.90
19449;DHT22;9863;49.404;8.246;2023-02-15T09:56:55;1.00;99.90
19449;DHT22;9863;49.404;8.246;2023-02-15T09:59:52;0.90;99.90
19449;DHT22;9863;49.404;8.246;2023-02-15T10:05:32;1.10;99.90
19449;DHT22;9863;49.404;8.246;2023-02-15T10:08:30;1.00;99.90
19449;DHT22;9863;49.404;8.246;2023-02-15T10:28:55;1.00;99.90
19449;DHT22;9863;49.404;8.246;2023-02-15T10:31:27;1.10;99.90
19449;DHT22;9863;49.404;8.246;2023-02-15T10:34:14;1.10;99.90
19449;DHT22;9863;49.404;8.246;2023-02-15T10:51:02;1.30;99.90
19449;DHT22;9863;49.404;8.246;2023-02-15T10:53:56;1.20;99.90
19449;DHT22;9863;49.404;8.246;2023-02-15T11:06:09;1.50;99.90
19449;DHT22;9863;49.404;8.246;2023-02-15T11:09:03;1.50;99.90
19449;DHT22;9863;49.404;8.246;2023-02-15T11:11:38;1.50;99.90
19449;DHT22;9863;49.404;8.246;2023-02-15T11:14:38;2.00;99.90
19449;DHT22;9863;49.404;8.246;2023-02-15T11:17:14;1.40;99.90
19449;DHT22;9863;49.404;8.246;2023-02-15T11:22:39;1.60;99.90
19449;DHT22;9863;49.404;8.246;2023-02-15T11:27:55;1.60;99.90
19449;DHT22;9863;49.404;8.246;2023-02-15T11:30:25;2.00;99.90
19449;DHT22;9863;49.404;8.246;2023-02-15T11:32:59;1.50;99.90
19449;DHT22;9863;49.404;8.246;2023-02-15T11:35:48;1.80;99.90
19449;DHT22;9863;49.404;8.246;2023-02-15T11:38:24;1.70;99.90
19449;DHT22;9863;49.404;8.246;2023-02-15T11:41:03;2.00;99.90
19449;DHT22;9863;49.404;8.246;2023-02-15T11:43:42;1.70;99.90
19449;DHT22;9863;49.404;8.246;2023-02-15T11:46:12;2.00;99.90
19449;DHT22;9863;49.404;8.246;2023-02-15T11:48:39;1.80;99.90
19449;DHT22;9863;49.404;8.246;2023-02-15T11:51:14;1.90;99.90
19449;DHT22;9863;49.404;8.246;2023-02-15T11:53:43;1.80;99.90
19449;DHT22;9863;49.404;8.246;2023-02-15T11:56:17;1.90;99.90
19449;DHT22;9863;49.404;8.246;2023-02-15T11:59:00;1.90;99.90
19449;DHT22;9863;49.404;8.246;2023-02-15T12:01:42;2.00;99.90
19449;DHT22;9863;49.404;8.246;2023-02-15T12:07:17;2.00;99.90
19449;DHT22;9863;49.404;8.246;2023-02-15T12:10:10;2.10;99.90
19449;DHT22;9863;49.404;8.246;2023-02-15T12:12:44;2.00;99.90
19449;DHT22;9863;49.404;8.246;2023-02-15T12:15:12;2.10;99.90
19449;DHT22;9863;49.404;8.246;2023-02-15T12:17:52;1.90;99.90
19449;DHT22;9863;49.404;8.246;2023-02-15T12:23:03;2.00;99.90
19449;DHT22;9863;49.404;8.246;2023-02-15T12:25:43;2.00;99.90
19449;DHT22;9863;49.404;8.246;2023-02-15T12:28:34;2.10;99.90
19449;DHT22;9863;49.404;8.246;2023-02-15T12:31:30;2.20;99.90
19449;DHT22;9863;49.404;8.246;2023-02-15T12:37:00;2.30;99.90
19449;DHT22;9863;49.404;8.246;2023-02-15T12:39:30;2.50;99.90
19449;DHT22;9863;49.404;8.246;2023-02-15T12:42:04;2.40;99.90
19449;DHT22;9863;49.404;8.246;2023-02-15T12:44:36;2.40;99.90
19449;DHT22;9863;49.404;8.246;2023-02-15T12:47:04;2.60;99.90
19449;DHT22;9863;49.404;8.246;2023-02-15T12:49:34;2.40;99.90
19449;DHT22;9863;49.404;8.246;2023-02-15T12:52:25;2.40;99.90
19449;DHT22;9863;49.404;8.246;2023-02-15T12:54:52;2.50;99.90
19449;DHT22;9863;49.404;8.246;2023-02-15T12:57:31;2.40;99.90
19449;DHT22;9863;49.404;8.246;2023-02-15T13:00:03;2.50;99.90
19449;DHT22;9863;49.404;8.246;2023-02-15T13:02:51;2.50;99.90
19449;DHT22;9863;49.404;8.246;2023-02-15T13:05:41;2.50;99.90
19449;DHT22;9863;49.404;8.246;2023-02-15T13:08:27;2.50;99.90
19449;DHT22;9863;49.404;8.246;2023-02-15T13:11:11;2.50;99.90
19449;DHT22;9863;49.404;8.246;2023-02-15T13:13:51;2.60;99.90
19449;DHT22;9863;49.404;8.246;2023-02-15T13:16:27;2.70;99.90
19449;DHT22;9863;49.404;8.246;2023-02-15T13:19:06;2.70;99.90
19449;DHT22;9863;49.404;8.246;2023-02-15T13:21:41;2.60;99.90
19449;DHT22;9863;49.404;8.246;2023-02-15T13:26:49;2.60;99.90
19449;DHT22;9863;49.404;8.246;2023-02-15T13:29:22;2.60;99.90
19449;DHT22;9863;49.404;8.246;2023-02-15T13:31:52;2.80;99.90
19449;DHT22;9863;49.404;8.246;2023-02-15T13:34:28;2.90;99.90
19449;DHT22;9863;49.404;8.246;2023-02-15T13:45:33;2.80;99.90
19449;DHT22;9863;49.404;8.246;2023-02-15T13:55:00;2.80;99.90
19449;DHT22;9863;49.404;8.246;2023-02-15T14:03:47;2.80;99.90
19449;DHT22;9863;49.404;8.246;2023-02-15T14:07:16;2.80;99.90
19449;DHT22;9863;49.404;8.246;2023-02-15T14:32:27;2.90;99.90
19449;DHT22;9863;49.404;8.246;2023-02-15T14:35:01;2.90;99.90
19449;DHT22;9863;49.404;8.246;2023-02-15T14:37:48;2.80;99.90
19449;DHT22;9863;49.404;8.246;2023-02-15T14:40:54;2.90;99.90
19449;DHT22;9863;49.404;8.246;2023-02-15T14:49:44;2.90;99.90
19449;DHT22;9863;49.404;8.246;2023-02-15T14:51:58;2.80;99.90
19449;DHT22;9863;49.404;8.246;2023-02-15T15:02:42;3.10;99.90
19449;DHT22;9863;49.404;8.246;2023-02-15T15:05:21;3.10;99.90
19449;DHT22;9863;49.404;8.246;2023-02-15T15:07:54;3.10;99.90
19449;DHT22;9863;49.404;8.246;2023-02-15T15:19:08;3.00;99.90
19449;DHT22;9863;49.404;8.246;2023-02-15T15:22:03;2.70;99.90
19449;DHT22;9863;49.404;8.246;2023-02-15T15:42:42;2.90;99.90
19449;DHT22;9863;49.404;8.246;2023-02-15T15:45:58;2.90;99.90
19449;DHT22;9863;49.404;8.246;2023-02-15T15:49:14;2.90;99.90
19449;DHT22;9863;49.404;8.246;2023-02-15T15:51:43;2.90;99.90
19449;DHT22;9863;49.404;8.246;2023-02-15T15:54:16;2.90;99.90
19449;DHT22;9863;49.404;8.246;2023-02-15T15:56:52;2.90;99.90
19449;DHT22;9863;49.404;8.246;2023-02-15T15:59:24;2.90;99.90
19449;DHT22;9863;49.404;8.246;2023-02-15T16:01:53;2.90;99.90
19449;DHT22;9863;49.404;8.246;2023-02-15T16:04:26;3.00;99.90
19449;DHT22;9863;49.404;8.246;2023-02-15T16:06:57;2.90;99.90
19449;DHT22;9863;49.404;8.246;2023-02-15T16:09:28;2.90;99.90
19449;DHT22;9863;49.404;8.246;2023-02-15T16:11:59;2.80;99.90
19449;DHT22;9863;49.404;8.246;2023-02-15T16:14:42;3.10;99.90
19449;DHT22;9863;49.404;8.246;2023-02-15T16:17:18;2.80;99.90
19449;DHT22;9863;49.404;8.246;2023-02-15T16:20:34;2.90;99.90
19449;DHT22;9863;49.404;8.246;2023-02-15T16:29:28;2.80;99.90
19449;DHT22;9863;49.404;8.246;2023-02-15T16:32:21;2.80;99.90
19449;DHT22;9863;49.404;8.246;2023-02-15T16:35:03;2.80;99.90
19449;DHT22;9863;49.404;8.246;2023-02-15T16:37:39;2.80;99.90
19449;DHT22;9863;49.404;8.246;2023-02-15T16:40:11;2.80;99.90
19449;DHT22;9863;49.404;8.246;2023-02-15T16:43:01;2.70;99.90
19449;DHT22;9863;49.404;8.246;2023-02-15T16:45:31;2.80;99.90
19449;DHT22;9863;49.404;8.246;2023-02-15T16:48:00;2.70;99.90
19449;DHT22;9863;49.404;8.246;2023-02-15T16:50:32;2.60;99.90
19449;DHT22;9863;49.404;8.246;2023-02-15T16:53:02;2.80;99.90
19449;DHT22;9863;49.404;8.246;2023-02-15T16:55:41;2.70;99.90
19449;DHT22;9863;49.404;8.246;2023-02-15T16:58:15;2.70;99.90
19449;DHT22;9863;49.404;8.246;2023-02-15T17:00:44;2.70;99.90
19449;DHT22;9863;49.404;8.246;2023-02-15T17:16:27;2.70;99.90
19449;DHT22;9863;49.404;8.246;2023-02-15T17:18:56;2.80;99.90
19449;DHT22;9863;49.404;8.246;2023-02-15T17:21:32;2.70;99.90
19449;DHT22;9863;49.404;8.246;2023-02-15T17:24:04;2.70;99.90
19449;DHT22;9863;49.404;8.246;2023-02-15T17:26:35;2.70;99.90
19449;DHT22;9863;49.404;8.246;2023-02-15T17:29:33;2.60;99.90
19449;DHT22;9863;49.404;8.246;2023-02-15T17:32:20;2.70;99.90
19449;DHT22;9863;49.404;8.246;2023-02-15T17:37:48;2.60;99.90
19449;DHT22;9863;49.404;8.246;2023-02-15T17:40:24;2.60;99.90
19449;DHT22;9863;49.404;8.246;2023-02-15T17:42:52;2.50;99.90
19449;DHT22;9863;49.404;8.246;2023-02-15T17:45:27;2.60;99.90
19449;DHT22;9863;49.404;8.246;2023-02-15T17:48:02;2.60;99.90
19449;DHT22;9863;49.404;8.246;2023-02-15T17:50:32;2.60;99.90
19449;DHT22;9863;49.404;8.246;2023-02-15T17:53:00;2.50;99.90
19449;DHT22;9863;49.404;8.246;2023-02-15T17:55:28;2.80;99.90
19449;DHT22;9863;49.404;8.246;2023-02-15T17:58:05;2.50;99.90
19449;DHT22;9863;49.404;8.246;2023-02-15T18:00:43;2.50;99.90
19449;DHT22;9863;49.404;8.246;2023-02-15T18:03:43;2.50;99.90
19449;DHT22;9863;49.404;8.246;2023-02-15T18:06:53;2.50;99.90
19449;DHT22;9863;49.404;8.246;2023-02-15T18:09:39;2.50;99.90
19449;DHT22;9863;49.404;8.246;2023-02-15T18:12:34;2.50;99.90
19449;DHT22;9863;49.404;8.246;2023-02-15T18:15:05;2.40;99.90
19449;DHT22;9863;49.404;8.246;2023-02-15T18:17:43;2.50;99.90
19449;DHT22;9863;49.404;8.246;2023-02-15T18:22:50;2.50;99.90
19449;DHT22;9863;49.404;8.246;2023-02-15T18:25:20;2.50;99.90
19449;DHT22;9863;49.404;8.246;2023-02-15T18:27:51;2.50;99.90
19449;DHT22;9863;49.404;8.246;2023-02-15T18:30:22;2.50;99.90
19449;DHT22;9863;49.404;8.246;2023-02-15T18:32:53;2.70;99.90
19449;DHT22;9863;49.404;8.246;2023-02-15T18:35:26;2.40;99.90
19449;DHT22;9863;49.404;8.246;2023-02-15T18:37:57;2.60;99.90
19449;DHT22;9863;49.404;8.246;2023-02-15T18:40:27;2.60;99.90
19449;DHT22;9863;49.404;8.246;2023-02-15T18:42:54;2.60;99.90
19449;DHT22;9863;49.404;8.246;2023-02-15T18:45:29;2.40;99.90
19449;DHT22;9863;49.404;8.246;2023-02-15T18:48:01;2.40;99.90
19449;DHT22;9863;49.404;8.246;2023-02-15T18:50:32;2.30;99.90
19449;DHT22;9863;49.404;8.246;2023-02-15T18:53:02;2.30;99.90
19449;DHT22;9863;49.404;8.246;2023-02-15T18:55:32;2.30;99.90
19449;DHT22;9863;49.404;8.246;2023-02-15T18:58:01;2.20;99.90
19449;DHT22;9863;49.404;8.246;2023-02-15T19:00:31;2.10;99.90
19449;DHT22;9863;49.404;8.246;2023-02-15T19:03:02;2.10;99.90
19449;DHT22;9863;49.404;8.246;2023-02-15T19:05:30;2.10;99.90
19449;DHT22;9863;49.404;8.246;2023-02-15T19:08:00;2.10;99.90
19449;DHT22;9863;49.404;8.246;2023-02-15T19:10:29;2.00;99.90
19449;DHT22;9863;49.404;8.246;2023-02-15T19:12:58;2.00;99.90
19449;DHT22;9863;49.404;8.246;2023-02-15T19:15:27;1.90;99.90
19449;DHT22;9863;49.404;8.246;2023-02-15T19:17:58;1.90;99.90
19449;DHT22;9863;49.404;8.246;2023-02-15T19:20:40;1.80;99.90
19449;DHT22;9863;49.404;8.246;2023-02-15T19:23:21;1.80;99.90
19449;DHT22;9863;49.404;8.246;2023-02-15T19:25:51;1.80;99.90
19449;DHT22;9863;49.404;8.246;2023-02-15T19:28:31;1.80;99.90
19449;DHT22;9863;49.404;8.246;2023-02-15T19:30:59;1.70;99.90
19449;DHT22;9863;49.404;8.246;2023-02-15T19:33:27;1.70;99.90
19449;DHT22;9863;49.404;8.246;2023-02-15T19:35:55;1.70;99.90
19449;DHT22;9863;49.404;8.246;2023-02-15T19:38:25;1.70;99.90
19449;DHT22;9863;49.404;8.246;2023-02-15T19:41:05;1.70;99.90
19449;DHT22;9863;49.404;8.246;2023-02-15T19:43:51;1.70;99.90
19449;DHT22;9863;49.404;8.246;2023-02-15T19:46:32;1.60;99.90
19449;DHT22;9863;49.404;8.246;2023-02-15T19:49:11;1.60;99.90
19449;DHT22;9863;49.404;8.246;2023-02-15T19:51:40;1.70;99.90
19449;DHT22;9863;49.404;8.246;2023-02-15T19:54:28;1.60;99.90
19449;DHT22;9863;49.404;8.246;2023-02-15T19:56:56;1.60;99.90
19449;DHT22;9863;49.404;8.246;2023-02-15T19:59:27;1.90;99.90
19449;DHT22;9863;49.404;8.246;2023-02-15T20:01:58;1.90;99.90
19449;DHT22;9863;49.404;8.246;2023-02-15T20:04:26;1.70;99.90
19449;DHT22;9863;49.404;8.246;2023-02-15T20:06:55;1.60;99.90
19449;DHT22;9863;49.404;8.246;2023-02-15T20:09:31;1.50;99.90